sensor_id;sensor_type;location;lat;lon;timestamp;P1;durP1;ratioP1;P2;durP2;ratioP2
65275;SDS011;51875;49.994;14.052;2023-12-20T00:00:40;3.80;;;2.30;;
65275;SDS011;51875;49.994;14.052;2023-12-20T00:01:56;2.83;;;2.08;;
65275;SDS011;51875;49.994;14.052;2023-12-20T00:03:12;4.10;;;2.28;;
65275;SDS011;51875;49.994;14.052;2023-12-20T00:04:28;3.00;;;1.80;;
65275;SDS011;51875;49.994;14.052;2023-12-20T00:05:45;3.47;;;2.20;;
65275;SDS011;51875;49.994;14.052;2023-12-20T00:07:01;6.38;;;2.80;;
65275;SDS011;51875;49.994;14.052;2023-12-20T00:08:17;7.03;;;3.00;;
65275;SDS011;51875;49.994;14.052;2023-12-20T00:09:33;4.47;;;2.97;;
65275;SDS011;51875;49.994;14.052;2023-12-20T00:10:49;2.72;;;1.60;;
65275;SDS011;51875;49.994;14.052;2023-12-20T00:12:05;2.28;;;1.52;;
65275;SDS011;51875;49.994;14.052;2023-12-20T00:13:21;4.75;;;2.38;;
65275;SDS011;51875;49.994;14.052;2023-12-20T00:14:37;2.17;;;1.65;;
65275;SDS011;51875;49.994;14.052;2023-12-20T00:15:53;3.92;;;2.35;;
65275;SDS011;51875;49.994;14.052;2023-12-20T00:17:09;2.45;;;2.10;;
65275;SDS011;51875;49.994;14.052;2023-12-20T00:18:25;3.97;;;2.05;;
65275;SDS011;51875;49.994;14.052;2023-12-20T00:19:41;3.58;;;2.30;;
65275;SDS011;51875;49.994;14.052;2023-12-20T00:20:57;3.35;;;2.13;;
65275;SDS011;51875;49.994;14.052;2023-12-20T00:22:12;6.63;;;3.72;;
65275;SDS011;51875;49.994;14.052;2023-12-20T00:23:29;4.20;;;2.67;;
65275;SDS011;51875;49.994;14.052;2023-12-20T00:24:44;4.00;;;2.17;;
65275;SDS011;51875;49.994;14.052;2023-12-20T00:26:02;3.88;;;2.58;;
65275;SDS011;51875;49.994;14.052;2023-12-20T00:27:18;3.85;;;3.10;;
65275;SDS011;51875;49.994;14.052;2023-12-20T00:28:34;3.72;;;2.42;;
65275;SDS011;51875;49.994;14.052;2023-12-20T00:29:50;3.15;;;2.35;;
65275;SDS011;51875;49.994;14.052;2023-12-20T00:31:06;5.60;;;3.67;;
65275;SDS011;51875;49.994;14.052;2023-12-20T00:32:22;3.53;;;2.58;;
65275;SDS011;51875;49.994;14.052;2023-12-20T00:33:38;4.30;;;2.60;;
65275;SDS011;51875;49.994;14.052;2023-12-20T00:34:55;5.03;;;3.47;;
65275;SDS011;51875;49.994;14.052;2023-12-20T00:36:11;4.40;;;2.53;;
65275;SDS011;51875;49.994;14.052;2023-12-20T00:37:27;3.38;;;2.33;;
65275;SDS011;51875;49.994;14.052;2023-12-20T00:38:43;3.88;;;2.70;;
65275;SDS011;51875;49.994;14.052;2023-12-20T00:39:59;10.43;;;3.50;;
65275;SDS011;51875;49.994;14.052;2023-12-20T00:41:15;6.30;;;3.22;;
65275;SDS011;51875;49.994;14.052;2023-12-20T00:42:31;4.82;;;2.92;;
65275;SDS011;51875;49.994;14.052;2023-12-20T00:43:47;5.28;;;3.85;;
65275;SDS011;51875;49.994;14.052;2023-12-20T00:45:04;4.05;;;3.30;;
65275;SDS011;51875;49.994;14.052;2023-12-20T00:46:20;3.67;;;2.63;;
65275;SDS011;51875;49.994;14.052;2023-12-20T00:47:36;2.38;;;1.92;;
65275;SDS011;51875;49.994;14.052;2023-12-20T00:48:52;3.47;;;2.58;;
65275;SDS011;51875;49.994;14.052;2023-12-20T00:50:08;4.50;;;2.70;;
65275;SDS011;51875;49.994;14.052;2023-12-20T00:51:25;3.78;;;2.60;;
65275;SDS011;51875;49.994;14.052;2023-12-20T00:52:41;3.63;;;2.53;;
65275;SDS011;51875;49.994;14.052;2023-12-20T00:53:57;3.50;;;2.15;;
65275;SDS011;51875;49.994;14.052;2023-12-20T00:55:13;4.50;;;2.88;;
65275;SDS011;51875;49.994;14.052;2023-12-20T00:56:29;3.58;;;2.65;;
65275;SDS011;51875;49.994;14.052;2023-12-20T00:57:45;5.68;;;3.58;;
65275;SDS011;51875;49.994;14.052;2023-12-20T00:59:01;6.07;;;3.45;;
65275;SDS011;51875;49.994;14.052;2023-12-20T01:00:17;3.17;;;1.85;;
65275;SDS011;51875;49.994;14.052;2023-12-20T01:01:33;6.35;;;2.58;;
65275;SDS011;51875;49.994;14.052;2023-12-20T01:02:49;2.42;;;2.00;;
65275;SDS011;51875;49.994;14.052;2023-12-20T01:04:06;4.22;;;2.08;;
65275;SDS011;51875;49.994;14.052;2023-12-20T01:05:22;5.03;;;2.92;;
65275;SDS011;51875;49.994;14.052;2023-12-20T01:06:38;3.95;;;2.45;;
65275;SDS011;51875;49.994;14.052;2023-12-20T01:07:54;5.10;;;3.30;;
65275;SDS011;51875;49.994;14.052;2023-12-20T01:09:10;4.57;;;2.88;;
65275;SDS011;51875;49.994;14.052;2023-12-20T01:10:26;6.32;;;3.38;;
65275;SDS011;51875;49.994;14.052;2023-12-20T01:11:44;5.57;;;2.83;;
65275;SDS011;51875;49.994;14.052;2023-12-20T01:13:01;3.47;;;2.28;;
65275;SDS011;51875;49.994;14.052;2023-12-20T01:14:17;5.03;;;2.55;;
65275;SDS011;51875;49.994;14.052;2023-12-20T01:15:34;6.07;;;3.38;;
65275;SDS011;51875;49.994;14.052;2023-12-20T01:16:50;3.20;;;2.47;;
65275;SDS011;51875;49.994;14.052;2023-12-20T01:18:05;5.60;;;3.03;;
65275;SDS011;51875;49.994;14.052;2023-12-20T01:19:21;7.38;;;2.85;;
65275;SDS011;51875;49.994;14.052;2023-12-20T01:20:39;4.28;;;2.53;;
65275;SDS011;51875;49.994;14.052;2023-12-20T01:21:55;7.32;;;3.78;;
65275;SDS011;51875;49.994;14.052;2023-12-20T01:23:11;4.50;;;2.70;;
65275;SDS011;51875;49.994;14.052;2023-12-20T01:24:27;3.28;;;2.65;;
65275;SDS011;51875;49.994;14.052;2023-12-20T01:25:43;3.55;;;2.42;;
65275;SDS011;51875;49.994;14.052;2023-12-20T01:26:59;5.68;;;2.47;;
65275;SDS011;51875;49.994;14.052;2023-12-20T01:28:15;3.13;;;2.33;;
65275;SDS011;51875;49.994;14.052;2023-12-20T01:29:31;4.28;;;2.53;;
65275;SDS011;51875;49.994;14.052;2023-12-20T01:30:47;3.60;;;2.22;;
65275;SDS011;51875;49.994;14.052;2023-12-20T01:32:03;6.32;;;3.08;;
65275;SDS011;51875;49.994;14.052;2023-12-20T01:33:19;4.18;;;2.58;;
65275;SDS011;51875;49.994;14.052;2023-12-20T01:34:35;4.50;;;2.15;;
65275;SDS011;51875;49.994;14.052;2023-12-20T01:35:51;4.53;;;2.38;;
65275;SDS011;51875;49.994;14.052;2023-12-20T01:37:07;5.65;;;2.50;;
65275;SDS011;51875;49.994;14.052;2023-12-20T01:38:23;5.28;;;3.15;;
65275;SDS011;51875;49.994;14.052;2023-12-20T01:39:39;3.72;;;2.58;;
65275;SDS011;51875;49.994;14.052;2023-12-20T01:40:55;3.80;;;2.28;;
65275;SDS011;51875;49.994;14.052;2023-12-20T01:42:11;3.65;;;2.42;;
65275;SDS011;51875;49.994;14.052;2023-12-20T01:43:27;6.47;;;3.10;;
65275;SDS011;51875;49.994;14.052;2023-12-20T01:44:43;6.80;;;3.63;;
65275;SDS011;51875;49.994;14.052;2023-12-20T01:45:59;4.60;;;2.58;;
65275;SDS011;51875;49.994;14.052;2023-12-20T01:47:15;8.25;;;3.72;;
65275;SDS011;51875;49.994;14.052;2023-12-20T01:48:32;4.38;;;2.92;;
65275;SDS011;51875;49.994;14.052;2023-12-20T01:49:48;3.75;;;2.30;;
65275;SDS011;51875;49.994;14.052;2023-12-20T01:51:05;5.43;;;3.00;;
65275;SDS011;51875;49.994;14.052;2023-12-20T01:52:20;4.60;;;2.58;;
65275;SDS011;51875;49.994;14.052;2023-12-20T01:53:36;3.58;;;2.72;;
65275;SDS011;51875;49.994;14.052;2023-12-20T01:54:55;4.85;;;2.50;;
65275;SDS011;51875;49.994;14.052;2023-12-20T01:56:16;5.57;;;3.15;;
65275;SDS011;51875;49.994;14.052;2023-12-20T01:57:32;3.70;;;2.47;;
65275;SDS011;51875;49.994;14.052;2023-12-20T01:58:48;4.30;;;2.45;;
65275;SDS011;51875;49.994;14.052;2023-12-20T02:00:05;4.03;;;2.85;;
65275;SDS011;51875;49.994;14.052;2023-12-20T02:01:22;3.22;;;2.05;;
65275;SDS011;51875;49.994;14.052;2023-12-20T02:02:41;6.53;;;3.70;;
65275;SDS011;51875;49.994;14.052;2023-12-20T02:03:57;4.43;;;3.03;;
65275;SDS011;51875;49.994;14.052;2023-12-20T02:05:13;3.20;;;1.92;;
65275;SDS011;51875;49.994;14.052;2023-12-20T02:06:29;5.13;;;2.92;;
65275;SDS011;51875;49.994;14.052;2023-12-20T02:07:46;4.10;;;2.53;;
65275;SDS011;51875;49.994;14.052;2023-12-20T02:09:02;5.70;;;2.63;;
65275;SDS011;51875;49.994;14.052;2023-12-20T02:10:19;4.43;;;2.40;;
65275;SDS011;51875;49.994;14.052;2023-12-20T02:11:35;3.65;;;2.28;;
65275;SDS011;51875;49.994;14.052;2023-12-20T02:12:51;5.82;;;3.00;;
65275;SDS011;51875;49.994;14.052;2023-12-20T02:14:07;3.47;;;2.00;;
65275;SDS011;51875;49.994;14.052;2023-12-20T02:15:23;2.78;;;2.10;;
65275;SDS011;51875;49.994;14.052;2023-12-20T02:16:39;2.70;;;1.92;;
65275;SDS011;51875;49.994;14.052;2023-12-20T02:17:55;5.72;;;2.97;;
65275;SDS011;51875;49.994;14.052;2023-12-20T02:19:15;3.53;;;2.15;;
65275;SDS011;51875;49.994;14.052;2023-12-20T02:20:31;4.10;;;1.92;;
65275;SDS011;51875;49.994;14.052;2023-12-20T02:21:47;4.38;;;1.90;;
65275;SDS011;51875;49.994;14.052;2023-12-20T02:23:03;7.60;;;3.70;;
65275;SDS011;51875;49.994;14.052;2023-12-20T02:24:19;7.80;;;3.35;;
65275;SDS011;51875;49.994;14.052;2023-12-20T02:25:35;7.32;;;3.03;;
65275;SDS011;51875;49.994;14.052;2023-12-20T02:26:51;3.63;;;2.42;;
65275;SDS011;51875;49.994;14.052;2023-12-20T02:28:07;4.95;;;3.13;;
65275;SDS011;51875;49.994;14.052;2023-12-20T02:29:23;6.85;;;3.42;;
65275;SDS011;51875;49.994;14.052;2023-12-20T02:30:39;5.82;;;3.47;;
65275;SDS011;51875;49.994;14.052;2023-12-20T02:31:55;4.93;;;2.80;;
65275;SDS011;51875;49.994;14.052;2023-12-20T02:33:10;5.65;;;2.47;;
65275;SDS011;51875;49.994;14.052;2023-12-20T02:34:29;1.85;;;1.45;;
65275;SDS011;51875;49.994;14.052;2023-12-20T02:35:45;2.28;;;1.67;;
65275;SDS011;51875;49.994;14.052;2023-12-20T02:37:01;3.58;;;2.00;;
65275;SDS011;51875;49.994;14.052;2023-12-20T02:38:17;2.33;;;1.77;;
65275;SDS011;51875;49.994;14.052;2023-12-20T02:39:33;5.00;;;2.40;;
65275;SDS011;51875;49.994;14.052;2023-12-20T02:40:48;3.65;;;2.25;;
65275;SDS011;51875;49.994;14.052;2023-12-20T02:42:04;2.58;;;1.70;;
65275;SDS011;51875;49.994;14.052;2023-12-20T02:43:20;3.08;;;2.53;;
65275;SDS011;51875;49.994;14.052;2023-12-20T02:44:36;2.65;;;2.15;;
65275;SDS011;51875;49.994;14.052;2023-12-20T02:45:52;3.85;;;2.67;;
65275;SDS011;51875;49.994;14.052;2023-12-20T02:47:08;2.65;;;1.60;;
65275;SDS011;51875;49.994;14.052;2023-12-20T02:48:24;4.00;;;2.25;;
65275;SDS011;51875;49.994;14.052;2023-12-20T02:49:40;3.63;;;2.47;;
65275;SDS011;51875;49.994;14.052;2023-12-20T02:50:56;3.17;;;2.35;;
65275;SDS011;51875;49.994;14.052;2023-12-20T02:52:12;3.13;;;2.38;;
65275;SDS011;51875;49.994;14.052;2023-12-20T02:53:28;2.67;;;1.95;;
65275;SDS011;51875;49.994;14.052;2023-12-20T02:54:44;3.72;;;2.60;;
65275;SDS011;51875;49.994;14.052;2023-12-20T02:56:00;2.72;;;2.40;;
65275;SDS011;51875;49.994;14.052;2023-12-20T02:57:16;2.55;;;1.90;;
65275;SDS011;51875;49.994;14.052;2023-12-20T02:58:32;3.22;;;2.15;;
65275;SDS011;51875;49.994;14.052;2023-12-20T02:59:48;1.90;;;1.60;;
65275;SDS011;51875;49.994;14.052;2023-12-20T03:01:04;3.83;;;2.10;;
65275;SDS011;51875;49.994;14.052;2023-12-20T03:02:20;3.03;;;2.45;;
65275;SDS011;51875;49.994;14.052;2023-12-20T03:03:36;5.22;;;2.67;;
65275;SDS011;51875;49.994;14.052;2023-12-20T03:04:51;3.10;;;2.47;;
65275;SDS011;51875;49.994;14.052;2023-12-20T03:06:07;3.40;;;1.73;;
65275;SDS011;51875;49.994;14.052;2023-12-20T03:07:23;5.07;;;2.45;;
65275;SDS011;51875;49.994;14.052;2023-12-20T03:08:39;4.93;;;1.90;;
65275;SDS011;51875;49.994;14.052;2023-12-20T03:09:58;3.38;;;2.13;;
65275;SDS011;51875;49.994;14.052;2023-12-20T03:11:14;3.05;;;1.90;;
65275;SDS011;51875;49.994;14.052;2023-12-20T03:12:29;2.22;;;1.40;;
65275;SDS011;51875;49.994;14.052;2023-12-20T03:13:45;3.13;;;2.33;;
65275;SDS011;51875;49.994;14.052;2023-12-20T03:15:01;3.13;;;2.33;;
65275;SDS011;51875;49.994;14.052;2023-12-20T03:16:17;3.50;;;2.28;;
65275;SDS011;51875;49.994;14.052;2023-12-20T03:17:34;3.17;;;1.80;;
65275;SDS011;51875;49.994;14.052;2023-12-20T03:18:50;3.03;;;1.50;;
65275;SDS011;51875;49.994;14.052;2023-12-20T03:20:06;5.00;;;2.83;;
65275;SDS011;51875;49.994;14.052;2023-12-20T03:21:22;5.75;;;2.25;;
65275;SDS011;51875;49.994;14.052;2023-12-20T03:22:38;3.00;;;1.90;;
65275;SDS011;51875;49.994;14.052;2023-12-20T03:23:54;2.67;;;2.22;;
65275;SDS011;51875;49.994;14.052;2023-12-20T03:25:10;4.13;;;2.63;;
65275;SDS011;51875;49.994;14.052;2023-12-20T03:26:26;3.10;;;2.63;;
65275;SDS011;51875;49.994;14.052;2023-12-20T03:27:42;2.83;;;2.00;;
65275;SDS011;51875;49.994;14.052;2023-12-20T03:28:58;3.42;;;1.80;;
65275;SDS011;51875;49.994;14.052;2023-12-20T03:30:14;2.67;;;2.00;;
65275;SDS011;51875;49.994;14.052;2023-12-20T03:31:30;2.88;;;1.67;;
65275;SDS011;51875;49.994;14.052;2023-12-20T03:32:46;1.50;;;1.33;;
65275;SDS011;51875;49.994;14.052;2023-12-20T03:34:02;3.53;;;2.05;;
65275;SDS011;51875;49.994;14.052;2023-12-20T03:35:18;3.78;;;1.92;;
65275;SDS011;51875;49.994;14.052;2023-12-20T03:36:34;2.45;;;1.75;;
65275;SDS011;51875;49.994;14.052;2023-12-20T03:37:50;1.85;;;1.60;;
65275;SDS011;51875;49.994;14.052;2023-12-20T03:39:06;1.38;;;1.25;;
65275;SDS011;51875;49.994;14.052;2023-12-20T03:40:22;2.20;;;1.20;;
65275;SDS011;51875;49.994;14.052;2023-12-20T03:41:38;1.88;;;1.58;;
65275;SDS011;51875;49.994;14.052;2023-12-20T03:42:54;2.38;;;1.63;;
65275;SDS011;51875;49.994;14.052;2023-12-20T03:44:10;1.98;;;1.42;;
65275;SDS011;51875;49.994;14.052;2023-12-20T03:45:26;2.13;;;1.40;;
65275;SDS011;51875;49.994;14.052;2023-12-20T03:46:42;2.58;;;1.42;;
65275;SDS011;51875;49.994;14.052;2023-12-20T03:47:58;2.42;;;1.30;;
65275;SDS011;51875;49.994;14.052;2023-12-20T03:49:14;2.33;;;1.73;;
65275;SDS011;51875;49.994;14.052;2023-12-20T03:50:30;1.30;;;1.02;;
65275;SDS011;51875;49.994;14.052;2023-12-20T03:51:45;3.72;;;1.63;;
65275;SDS011;51875;49.994;14.052;2023-12-20T03:53:01;3.67;;;1.73;;
65275;SDS011;51875;49.994;14.052;2023-12-20T03:54:18;1.77;;;1.45;;
65275;SDS011;51875;49.994;14.052;2023-12-20T03:55:33;2.15;;;1.40;;
65275;SDS011;51875;49.994;14.052;2023-12-20T03:56:49;2.22;;;1.45;;
65275;SDS011;51875;49.994;14.052;2023-12-20T03:58:05;3.03;;;1.98;;
65275;SDS011;51875;49.994;14.052;2023-12-20T03:59:21;1.73;;;1.20;;
65275;SDS011;51875;49.994;14.052;2023-12-20T04:00:37;2.08;;;1.35;;
65275;SDS011;51875;49.994;14.052;2023-12-20T04:01:53;4.68;;;1.83;;
65275;SDS011;51875;49.994;14.052;2023-12-20T04:03:09;4.38;;;2.50;;
65275;SDS011;51875;49.994;14.052;2023-12-20T04:04:28;2.40;;;1.80;;
65275;SDS011;51875;49.994;14.052;2023-12-20T04:05:44;2.42;;;1.75;;
65275;SDS011;51875;49.994;14.052;2023-12-20T04:07:00;2.47;;;1.58;;
65275;SDS011;51875;49.994;14.052;2023-12-20T04:08:16;2.85;;;1.30;;
65275;SDS011;51875;49.994;14.052;2023-12-20T04:09:32;3.90;;;1.85;;
65275;SDS011;51875;49.994;14.052;2023-12-20T04:10:47;1.17;;;1.02;;
65275;SDS011;51875;49.994;14.052;2023-12-20T04:12:03;2.83;;;1.48;;
65275;SDS011;51875;49.994;14.052;2023-12-20T04:13:21;3.33;;;2.20;;
65275;SDS011;51875;49.994;14.052;2023-12-20T04:14:37;1.92;;;1.63;;
65275;SDS011;51875;49.994;14.052;2023-12-20T04:15:53;1.95;;;1.35;;
65275;SDS011;51875;49.994;14.052;2023-12-20T04:17:09;4.20;;;1.70;;
65275;SDS011;51875;49.994;14.052;2023-12-20T04:18:25;3.75;;;2.60;;
65275;SDS011;51875;49.994;14.052;2023-12-20T04:19:40;3.22;;;2.10;;
65275;SDS011;51875;49.994;14.052;2023-12-20T04:20:57;3.47;;;1.83;;
65275;SDS011;51875;49.994;14.052;2023-12-20T04:22:13;2.33;;;1.77;;
65275;SDS011;51875;49.994;14.052;2023-12-20T04:23:28;6.05;;;2.63;;
65275;SDS011;51875;49.994;14.052;2023-12-20T04:24:44;2.13;;;1.60;;
65275;SDS011;51875;49.994;14.052;2023-12-20T04:26:00;2.08;;;1.70;;
65275;SDS011;51875;49.994;14.052;2023-12-20T04:27:16;2.20;;;1.50;;
65275;SDS011;51875;49.994;14.052;2023-12-20T04:28:32;3.55;;;2.45;;
65275;SDS011;51875;49.994;14.052;2023-12-20T04:29:48;4.03;;;1.88;;
65275;SDS011;51875;49.994;14.052;2023-12-20T04:31:04;2.65;;;2.15;;
65275;SDS011;51875;49.994;14.052;2023-12-20T04:32:20;4.63;;;2.90;;
65275;SDS011;51875;49.994;14.052;2023-12-20T04:33:36;3.83;;;3.05;;
65275;SDS011;51875;49.994;14.052;2023-12-20T04:34:52;4.15;;;2.75;;
65275;SDS011;51875;49.994;14.052;2023-12-20T04:36:08;3.25;;;2.22;;
65275;SDS011;51875;49.994;14.052;2023-12-20T04:37:24;2.38;;;1.83;;
65275;SDS011;51875;49.994;14.052;2023-12-20T04:38:40;1.92;;;1.35;;
65275;SDS011;51875;49.994;14.052;2023-12-20T04:39:56;5.45;;;2.78;;
65275;SDS011;51875;49.994;14.052;2023-12-20T04:41:12;2.58;;;1.80;;
65275;SDS011;51875;49.994;14.052;2023-12-20T04:42:31;3.35;;;1.95;;
65275;SDS011;51875;49.994;14.052;2023-12-20T04:43:47;3.45;;;2.55;;
65275;SDS011;51875;49.994;14.052;2023-12-20T04:45:03;2.55;;;2.05;;
65275;SDS011;51875;49.994;14.052;2023-12-20T04:46:20;2.85;;;1.90;;
65275;SDS011;51875;49.994;14.052;2023-12-20T04:47:36;2.67;;;2.22;;
65275;SDS011;51875;49.994;14.052;2023-12-20T04:48:51;4.03;;;1.90;;
65275;SDS011;51875;49.994;14.052;2023-12-20T04:50:08;3.72;;;2.08;;
65275;SDS011;51875;49.994;14.052;2023-12-20T04:51:25;4.60;;;2.67;;
65275;SDS011;51875;49.994;14.052;2023-12-20T04:52:41;5.03;;;2.80;;
65275;SDS011;51875;49.994;14.052;2023-12-20T04:53:57;1.88;;;1.52;;
65275;SDS011;51875;49.994;14.052;2023-12-20T04:55:13;4.78;;;2.20;;
65275;SDS011;51875;49.994;14.052;2023-12-20T04:56:29;2.28;;;1.85;;
65275;SDS011;51875;49.994;14.052;2023-12-20T04:57:45;4.05;;;2.13;;
65275;SDS011;51875;49.994;14.052;2023-12-20T04:59:01;2.97;;;1.88;;
65275;SDS011;51875;49.994;14.052;2023-12-20T05:00:17;2.97;;;2.00;;
65275;SDS011;51875;49.994;14.052;2023-12-20T05:01:33;3.47;;;2.28;;
65275;SDS011;51875;49.994;14.052;2023-12-20T05:02:49;5.15;;;2.58;;
65275;SDS011;51875;49.994;14.052;2023-12-20T05:04:05;2.97;;;1.80;;
65275;SDS011;51875;49.994;14.052;2023-12-20T05:05:21;3.10;;;1.95;;
65275;SDS011;51875;49.994;14.052;2023-12-20T05:06:37;2.70;;;1.75;;
65275;SDS011;51875;49.994;14.052;2023-12-20T05:07:53;3.17;;;1.90;;
65275;SDS011;51875;49.994;14.052;2023-12-20T05:09:09;2.03;;;1.45;;
65275;SDS011;51875;49.994;14.052;2023-12-20T05:10:25;2.90;;;2.17;;
65275;SDS011;51875;49.994;14.052;2023-12-20T05:11:42;2.33;;;1.60;;
65275;SDS011;51875;49.994;14.052;2023-12-20T05:12:58;1.85;;;1.13;;
65275;SDS011;51875;49.994;14.052;2023-12-20T05:14:14;1.90;;;1.50;;
65275;SDS011;51875;49.994;14.052;2023-12-20T05:15:30;2.70;;;1.60;;
65275;SDS011;51875;49.994;14.052;2023-12-20T05:16:46;2.38;;;1.70;;
65275;SDS011;51875;49.994;14.052;2023-12-20T05:18:02;5.10;;;2.20;;
65275;SDS011;51875;49.994;14.052;2023-12-20T05:19:18;3.70;;;2.28;;
65275;SDS011;51875;49.994;14.052;2023-12-20T05:20:34;1.98;;;1.60;;
65275;SDS011;51875;49.994;14.052;2023-12-20T05:21:50;2.17;;;1.70;;
65275;SDS011;51875;49.994;14.052;2023-12-20T05:23:06;2.83;;;1.75;;
65275;SDS011;51875;49.994;14.052;2023-12-20T05:24:22;3.35;;;1.88;;
65275;SDS011;51875;49.994;14.052;2023-12-20T05:25:38;2.03;;;1.60;;
65275;SDS011;51875;49.994;14.052;2023-12-20T05:26:54;2.38;;;0.90;;
65275;SDS011;51875;49.994;14.052;2023-12-20T05:28:10;2.08;;;1.48;;
65275;SDS011;51875;49.994;14.052;2023-12-20T05:29:26;3.67;;;1.77;;
65275;SDS011;51875;49.994;14.052;2023-12-20T05:30:41;2.35;;;1.20;;
65275;SDS011;51875;49.994;14.052;2023-12-20T05:31:58;3.28;;;1.63;;
65275;SDS011;51875;49.994;14.052;2023-12-20T05:33:14;1.70;;;1.35;;
65275;SDS011;51875;49.994;14.052;2023-12-20T05:34:30;4.00;;;1.70;;
65275;SDS011;51875;49.994;14.052;2023-12-20T05:35:46;1.60;;;1.10;;
65275;SDS011;51875;49.994;14.052;2023-12-20T05:37:02;4.13;;;2.33;;
65275;SDS011;51875;49.994;14.052;2023-12-20T05:38:18;3.38;;;2.35;;
65275;SDS011;51875;49.994;14.052;2023-12-20T05:39:34;2.15;;;1.55;;
65275;SDS011;51875;49.994;14.052;2023-12-20T05:40:50;1.75;;;1.25;;
65275;SDS011;51875;49.994;14.052;2023-12-20T05:42:06;3.83;;;2.55;;
65275;SDS011;51875;49.994;14.052;2023-12-20T05:43:22;3.78;;;2.20;;
65275;SDS011;51875;49.994;14.052;2023-12-20T05:44:38;3.88;;;1.80;;
65275;SDS011;51875;49.994;14.052;2023-12-20T05:45:54;2.38;;;1.83;;
65275;SDS011;51875;49.994;14.052;2023-12-20T05:47:10;1.02;;;0.93;;
65275;SDS011;51875;49.994;14.052;2023-12-20T05:48:26;1.50;;;1.20;;
65275;SDS011;51875;49.994;14.052;2023-12-20T05:49:43;1.58;;;1.38;;
65275;SDS011;51875;49.994;14.052;2023-12-20T05:50:59;2.63;;;1.63;;
65275;SDS011;51875;49.994;14.052;2023-12-20T05:52:15;2.30;;;1.60;;
65275;SDS011;51875;49.994;14.052;2023-12-20T05:53:31;2.17;;;1.45;;
65275;SDS011;51875;49.994;14.052;2023-12-20T05:54:47;2.38;;;1.75;;
65275;SDS011;51875;49.994;14.052;2023-12-20T05:56:03;3.10;;;1.73;;
65275;SDS011;51875;49.994;14.052;2023-12-20T05:57:19;2.15;;;1.58;;
65275;SDS011;51875;49.994;14.052;2023-12-20T05:58:36;2.22;;;1.30;;
65275;SDS011;51875;49.994;14.052;2023-12-20T05:59:52;2.55;;;1.65;;
65275;SDS011;51875;49.994;14.052;2023-12-20T06:01:08;1.00;;;0.68;;
65275;SDS011;51875;49.994;14.052;2023-12-20T06:02:24;2.13;;;1.35;;
65275;SDS011;51875;49.994;14.052;2023-12-20T06:03:41;1.58;;;1.17;;
65275;SDS011;51875;49.994;14.052;2023-12-20T06:04:57;1.60;;;1.05;;
65275;SDS011;51875;49.994;14.052;2023-12-20T06:06:13;4.57;;;1.73;;
65275;SDS011;51875;49.994;14.052;2023-12-20T06:07:29;1.55;;;1.20;;
65275;SDS011;51875;49.994;14.052;2023-12-20T06:08:45;1.83;;;1.02;;
65275;SDS011;51875;49.994;14.052;2023-12-20T06:10:01;1.98;;;1.45;;
65275;SDS011;51875;49.994;14.052;2023-12-20T06:11:17;3.03;;;1.50;;
65275;SDS011;51875;49.994;14.052;2023-12-20T06:12:33;1.58;;;1.20;;
65275;SDS011;51875;49.994;14.052;2023-12-20T06:13:51;3.05;;;1.65;;
65275;SDS011;51875;49.994;14.052;2023-12-20T06:15:09;1.83;;;1.25;;
65275;SDS011;51875;49.994;14.052;2023-12-20T06:16:25;3.25;;;1.10;;
65275;SDS011;51875;49.994;14.052;2023-12-20T06:17:41;2.17;;;1.25;;
65275;SDS011;51875;49.994;14.052;2023-12-20T06:18:57;1.55;;;1.10;;
65275;SDS011;51875;49.994;14.052;2023-12-20T06:20:13;2.55;;;1.83;;
65275;SDS011;51875;49.994;14.052;2023-12-20T06:21:29;3.03;;;1.50;;
65275;SDS011;51875;49.994;14.052;2023-12-20T06:22:45;1.73;;;0.85;;
65275;SDS011;51875;49.994;14.052;2023-12-20T06:24:01;2.08;;;1.30;;
65275;SDS011;51875;49.994;14.052;2023-12-20T06:25:17;2.00;;;1.20;;
65275;SDS011;51875;49.994;14.052;2023-12-20T06:26:33;1.60;;;1.02;;
65275;SDS011;51875;49.994;14.052;2023-12-20T06:27:49;1.20;;;1.10;;
65275;SDS011;51875;49.994;14.052;2023-12-20T06:29:05;1.00;;;0.90;;
65275;SDS011;51875;49.994;14.052;2023-12-20T06:30:21;2.70;;;1.20;;
65275;SDS011;51875;49.994;14.052;2023-12-20T06:31:36;1.55;;;1.13;;
65275;SDS011;51875;49.994;14.052;2023-12-20T06:32:53;1.35;;;1.25;;
65275;SDS011;51875;49.994;14.052;2023-12-20T06:34:10;1.40;;;0.85;;
65275;SDS011;51875;49.994;14.052;2023-12-20T06:35:26;1.17;;;0.75;;
65275;SDS011;51875;49.994;14.052;2023-12-20T06:36:42;2.45;;;1.27;;
65275;SDS011;51875;49.994;14.052;2023-12-20T06:37:58;1.10;;;1.00;;
65275;SDS011;51875;49.994;14.052;2023-12-20T06:39:14;1.90;;;1.10;;
65275;SDS011;51875;49.994;14.052;2023-12-20T06:40:30;2.08;;;0.90;;
65275;SDS011;51875;49.994;14.052;2023-12-20T06:41:46;1.48;;;1.05;;
65275;SDS011;51875;49.994;14.052;2023-12-20T06:43:02;1.95;;;1.13;;
65275;SDS011;51875;49.994;14.052;2023-12-20T06:44:18;1.95;;;0.90;;
65275;SDS011;51875;49.994;14.052;2023-12-20T06:45:34;1.73;;;0.93;;
65275;SDS011;51875;49.994;14.052;2023-12-20T06:46:50;1.88;;;1.27;;
65275;SDS011;51875;49.994;14.052;2023-12-20T06:48:06;1.33;;;0.65;;
65275;SDS011;51875;49.994;14.052;2023-12-20T06:49:22;0.77;;;0.73;;
65275;SDS011;51875;49.994;14.052;2023-12-20T06:50:38;0.65;;;0.65;;
65275;SDS011;51875;49.994;14.052;2023-12-20T06:51:55;2.05;;;1.20;;
65275;SDS011;51875;49.994;14.052;2023-12-20T06:53:13;1.52;;;1.17;;
65275;SDS011;51875;49.994;14.052;2023-12-20T06:54:29;1.88;;;1.30;;
65275;SDS011;51875;49.994;14.052;2023-12-20T06:55:45;1.70;;;1.20;;
65275;SDS011;51875;49.994;14.052;2023-12-20T06:57:01;2.95;;;1.25;;
65275;SDS011;51875;49.994;14.052;2023-12-20T06:58:18;1.10;;;1.00;;
65275;SDS011;51875;49.994;14.052;2023-12-20T06:59:37;0.60;;;0.60;;
65275;SDS011;51875;49.994;14.052;2023-12-20T07:00:57;1.27;;;0.82;;
65275;SDS011;51875;49.994;14.052;2023-12-20T07:02:12;1.77;;;1.20;;
65275;SDS011;51875;49.994;14.052;2023-12-20T07:03:28;1.00;;;0.90;;
65275;SDS011;51875;49.994;14.052;2023-12-20T07:04:44;1.30;;;1.00;;
65275;SDS011;51875;49.994;14.052;2023-12-20T07:06:00;1.42;;;0.93;;
65275;SDS011;51875;49.994;14.052;2023-12-20T07:07:16;1.45;;;0.85;;
65275;SDS011;51875;49.994;14.052;2023-12-20T07:08:32;1.45;;;1.17;;
65275;SDS011;51875;49.994;14.052;2023-12-20T07:09:48;1.08;;;0.77;;
65275;SDS011;51875;49.994;14.052;2023-12-20T07:11:04;0.93;;;0.65;;
65275;SDS011;51875;49.994;14.052;2023-12-20T07:12:20;1.00;;;0.65;;
65275;SDS011;51875;49.994;14.052;2023-12-20T07:13:36;1.48;;;0.88;;
65275;SDS011;51875;49.994;14.052;2023-12-20T07:14:52;1.13;;;1.00;;
65275;SDS011;51875;49.994;14.052;2023-12-20T07:16:08;0.82;;;0.73;;
65275;SDS011;51875;49.994;14.052;2023-12-20T07:17:24;1.63;;;1.13;;
65275;SDS011;51875;49.994;14.052;2023-12-20T07:18:40;1.95;;;1.20;;
65275;SDS011;51875;49.994;14.052;2023-12-20T07:19:56;1.27;;;0.80;;
65275;SDS011;51875;49.994;14.052;2023-12-20T07:21:12;2.53;;;1.08;;
65275;SDS011;51875;49.994;14.052;2023-12-20T07:22:28;2.90;;;1.13;;
65275;SDS011;51875;49.994;14.052;2023-12-20T07:23:44;1.02;;;0.73;;
65275;SDS011;51875;49.994;14.052;2023-12-20T07:25:00;0.60;;;0.50;;
65275;SDS011;51875;49.994;14.052;2023-12-20T07:26:17;1.52;;;1.02;;
65275;SDS011;51875;49.994;14.052;2023-12-20T07:27:33;1.20;;;0.98;;
65275;SDS011;51875;49.994;14.052;2023-12-20T07:28:49;1.17;;;0.88;;
65275;SDS011;51875;49.994;14.052;2023-12-20T07:30:05;0.60;;;0.60;;
65275;SDS011;51875;49.994;14.052;2023-12-20T07:31:21;1.90;;;0.70;;